sensor_id;sensor_type;location;lat;lon;timestamp;P1;durP1;ratioP1;P2;durP2;ratioP2
27383;SDS011;14851;51.166;4.760;2022-08-01T00:01:17;4.03;;;2.40;;
27383;SDS011;14851;51.166;4.760;2022-08-01T00:03:44;4.32;;;2.50;;
27383;SDS011;14851;51.166;4.760;2022-08-01T00:06:10;5.72;;;2.45;;
27383;SDS011;14851;51.166;4.760;2022-08-01T00:08:38;8.00;;;2.83;;
27383;SDS011;14851;51.166;4.760;2022-08-01T00:11:05;4.00;;;2.38;;
27383;SDS011;14851;51.166;4.760;2022-08-01T00:13:31;6.80;;;2.33;;
27383;SDS011;14851;51.166;4.760;2022-08-01T00:15:58;6.15;;;2.90;;
27383;SDS011;14851;51.166;4.760;2022-08-01T00:18:25;4.90;;;2.70;;
27383;SDS011;14851;51.166;4.760;2022-08-01T00:20:56;6.25;;;3.00;;
27383;SDS011;14851;51.166;4.760;2022-08-01T00:23:22;6.00;;;2.72;;
27383;SDS011;14851;51.166;4.760;2022-08-01T00:25:49;7.55;;;2.88;;
27383;SDS011;14851;51.166;4.760;2022-08-01T00:28:17;7.07;;;3.40;;
27383;SDS011;14851;51.166;4.760;2022-08-01T00:30:43;5.63;;;3.20;;
27383;SDS011;14851;51.166;4.760;2022-08-01T00:33:09;4.88;;;2.90;;
27383;SDS011;14851;51.166;4.760;2022-08-01T00:35:35;8.77;;;3.63;;
27383;SDS011;14851;51.166;4.760;2022-08-01T00:38:02;6.22;;;4.65;;
27383;SDS011;14851;51.166;4.760;2022-08-01T00:40:28;7.57;;;5.20;;
27383;SDS011;14851;51.166;4.760;2022-08-01T00:42:54;4.78;;;2.85;;
27383;SDS011;14851;51.166;4.760;2022-08-01T00:45:25;8.63;;;4.13;;
27383;SDS011;14851;51.166;4.760;2022-08-01T00:47:52;5.55;;;3.15;;
27383;SDS011;14851;51.166;4.760;2022-08-01T00:50:18;8.35;;;4.38;;
27383;SDS011;14851;51.166;4.760;2022-08-01T00:52:45;4.78;;;2.75;;
27383;SDS011;14851;51.166;4.760;2022-08-01T00:55:11;5.70;;;3.38;;
27383;SDS011;14851;51.166;4.760;2022-08-01T00:57:39;12.27;;;6.78;;
27383;SDS011;14851;51.166;4.760;2022-08-01T01:00:05;12.30;;;6.22;;
27383;SDS011;14851;51.166;4.760;2022-08-01T01:02:33;9.65;;;6.07;;
27383;SDS011;14851;51.166;4.760;2022-08-01T01:05:00;11.13;;;6.28;;
27383;SDS011;14851;51.166;4.760;2022-08-01T01:07:35;7.28;;;4.82;;
27383;SDS011;14851;51.166;4.760;2022-08-01T01:10:21;11.40;;;7.20;;
27383;SDS011;14851;51.166;4.760;2022-08-01T01:17:56;11.48;;;6.60;;
27383;SDS011;14851;51.166;4.760;2022-08-01T01:20:30;8.23;;;4.93;;
27383;SDS011;14851;51.166;4.760;2022-08-01T01:31:23;11.20;;;6.28;;
27383;SDS011;14851;51.166;4.760;2022-08-01T01:33:51;8.05;;;5.22;;
27383;SDS011;14851;51.166;4.760;2022-08-01T01:36:23;14.10;;;6.10;;
27383;SDS011;14851;51.166;4.760;2022-08-01T01:38:51;6.75;;;4.60;;
27383;SDS011;14851;51.166;4.760;2022-08-01T01:41:20;11.35;;;4.70;;
27383;SDS011;14851;51.166;4.760;2022-08-01T01:43:49;8.45;;;4.43;;
27383;SDS011;14851;51.166;4.760;2022-08-01T01:46:17;9.98;;;5.63;;
27383;SDS011;14851;51.166;4.760;2022-08-01T01:48:48;7.25;;;4.63;;
27383;SDS011;14851;51.166;4.760;2022-08-01T01:51:15;9.55;;;5.88;;
27383;SDS011;14851;51.166;4.760;2022-08-01T01:53:43;12.15;;;7.20;;
27383;SDS011;14851;51.166;4.760;2022-08-01T01:56:11;6.32;;;4.95;;
27383;SDS011;14851;51.166;4.760;2022-08-01T01:58:43;10.95;;;6.57;;
27383;SDS011;14851;51.166;4.760;2022-08-01T02:01:10;10.27;;;5.53;;
27383;SDS011;14851;51.166;4.760;2022-08-01T02:03:39;6.28;;;4.63;;
27383;SDS011;14851;51.166;4.760;2022-08-01T02:06:07;15.35;;;10.05;;
27383;SDS011;14851;51.166;4.760;2022-08-01T02:08:33;16.88;;;11.25;;
27383;SDS011;14851;51.166;4.760;2022-08-01T02:11:03;8.70;;;5.00;;
27383;SDS011;14851;51.166;4.760;2022-08-01T02:13:50;18.30;;;11.77;;
27383;SDS011;14851;51.166;4.760;2022-08-01T02:16:26;20.52;;;13.93;;
27383;SDS011;14851;51.166;4.760;2022-08-01T02:18:59;22.08;;;13.35;;
27383;SDS011;14851;51.166;4.760;2022-08-01T02:22:11;20.77;;;14.45;;
27383;SDS011;14851;51.166;4.760;2022-08-01T02:24:40;24.13;;;17.92;;
27383;SDS011;14851;51.166;4.760;2022-08-01T02:27:09;16.80;;;12.82;;
27383;SDS011;14851;51.166;4.760;2022-08-01T02:29:58;19.35;;;13.55;;
27383;SDS011;14851;51.166;4.760;2022-08-01T02:35:37;30.05;;;22.02;;
27383;SDS011;14851;51.166;4.760;2022-08-01T02:38:10;27.77;;;20.38;;
27383;SDS011;14851;51.166;4.760;2022-08-01T02:40:41;31.40;;;24.05;;
27383;SDS011;14851;51.166;4.760;2022-08-01T02:43:15;26.50;;;19.85;;
27383;SDS011;14851;51.166;4.760;2022-08-01T02:45:49;34.78;;;24.58;;
27383;SDS011;14851;51.166;4.760;2022-08-01T02:48:18;33.55;;;25.75;;
27383;SDS011;14851;51.166;4.760;2022-08-01T02:50:49;28.55;;;23.38;;
27383;SDS011;14851;51.166;4.760;2022-08-01T02:53:18;23.65;;;17.45;;
27383;SDS011;14851;51.166;4.760;2022-08-01T02:55:50;20.48;;;14.80;;
27383;SDS011;14851;51.166;4.760;2022-08-01T02:58:20;13.60;;;10.00;;
27383;SDS011;14851;51.166;4.760;2022-08-01T03:00:49;21.23;;;13.05;;
27383;SDS011;14851;51.166;4.760;2022-08-01T03:03:16;19.88;;;11.48;;
27383;SDS011;14851;51.166;4.760;2022-08-01T03:05:43;17.73;;;11.40;;
27383;SDS011;14851;51.166;4.760;2022-08-01T03:08:11;14.48;;;9.98;;
27383;SDS011;14851;51.166;4.760;2022-08-01T03:10:41;14.97;;;11.47;;
27383;SDS011;14851;51.166;4.760;2022-08-01T03:13:13;17.27;;;10.25;;
27383;SDS011;14851;51.166;4.760;2022-08-01T03:15:43;15.88;;;9.50;;
27383;SDS011;14851;51.166;4.760;2022-08-01T03:18:11;13.82;;;8.57;;
27383;SDS011;14851;51.166;4.760;2022-08-01T03:20:39;14.40;;;9.20;;
27383;SDS011;14851;51.166;4.760;2022-08-01T03:23:08;13.90;;;7.85;;
27383;SDS011;14851;51.166;4.760;2022-08-01T03:25:38;12.70;;;8.75;;
27383;SDS011;14851;51.166;4.760;2022-08-01T03:28:08;13.82;;;8.27;;
27383;SDS011;14851;51.166;4.760;2022-08-01T03:30:37;14.65;;;8.60;;
27383;SDS011;14851;51.166;4.760;2022-08-01T03:33:05;10.50;;;7.47;;
27383;SDS011;14851;51.166;4.760;2022-08-01T03:35:36;12.02;;;7.15;;
27383;SDS011;14851;51.166;4.760;2022-08-01T03:38:07;14.38;;;7.95;;
27383;SDS011;14851;51.166;4.760;2022-08-01T03:40:38;11.25;;;7.28;;
27383;SDS011;14851;51.166;4.760;2022-08-01T03:43:15;14.65;;;7.20;;
27383;SDS011;14851;51.166;4.760;2022-08-01T03:45:55;11.43;;;6.85;;
27383;SDS011;14851;51.166;4.760;2022-08-01T03:48:28;10.88;;;6.68;;
27383;SDS011;14851;51.166;4.760;2022-08-01T03:51:00;11.32;;;6.20;;
27383;SDS011;14851;51.166;4.760;2022-08-01T03:53:28;11.02;;;6.30;;
27383;SDS011;14851;51.166;4.760;2022-08-01T03:55:58;12.60;;;6.80;;
27383;SDS011;14851;51.166;4.760;2022-08-01T03:58:29;9.70;;;5.40;;
27383;SDS011;14851;51.166;4.760;2022-08-01T04:00:57;12.93;;;6.50;;
27383;SDS011;14851;51.166;4.760;2022-08-01T04:03:23;9.93;;;5.97;;
27383;SDS011;14851;51.166;4.760;2022-08-01T04:05:51;9.05;;;5.97;;
27383;SDS011;14851;51.166;4.760;2022-08-01T04:08:18;9.85;;;5.78;;
27383;SDS011;14851;51.166;4.760;2022-08-01T04:10:47;10.90;;;5.57;;
27383;SDS011;14851;51.166;4.760;2022-08-01T04:13:13;8.52;;;5.88;;
27383;SDS011;14851;51.166;4.760;2022-08-01T04:15:41;12.02;;;5.65;;
27383;SDS011;14851;51.166;4.760;2022-08-01T04:18:07;7.20;;;5.30;;
27383;SDS011;14851;51.166;4.760;2022-08-01T04:20:34;6.85;;;4.90;;
27383;SDS011;14851;51.166;4.760;2022-08-01T04:23:01;13.63;;;5.75;;
27383;SDS011;14851;51.166;4.760;2022-08-01T04:25:33;11.85;;;5.70;;
27383;SDS011;14851;51.166;4.760;2022-08-01T04:28:02;9.75;;;5.53;;
27383;SDS011;14851;51.166;4.760;2022-08-01T04:30:33;8.63;;;5.45;;
27383;SDS011;14851;51.166;4.760;2022-08-01T04:33:03;7.72;;;5.55;;
27383;SDS011;14851;51.166;4.760;2022-08-01T04:35:32;8.60;;;5.33;;
27383;SDS011;14851;51.166;4.760;2022-08-01T04:38:01;9.75;;;5.20;;
27383;SDS011;14851;51.166;4.760;2022-08-01T04:40:28;11.00;;;6.18;;
27383;SDS011;14851;51.166;4.760;2022-08-01T04:42:56;7.03;;;5.10;;
27383;SDS011;14851;51.166;4.760;2022-08-01T04:45:22;8.40;;;5.15;;
27383;SDS011;14851;51.166;4.760;2022-08-01T04:47:49;10.00;;;5.50;;
27383;SDS011;14851;51.166;4.760;2022-08-01T04:50:15;8.38;;;4.93;;
27383;SDS011;14851;51.166;4.760;2022-08-01T04:52:43;10.15;;;5.40;;
27383;SDS011;14851;51.166;4.760;2022-08-01T04:55:10;8.00;;;5.25;;
27383;SDS011;14851;51.166;4.760;2022-08-01T04:57:37;7.72;;;4.75;;
27383;SDS011;14851;51.166;4.760;2022-08-01T05:00:09;11.40;;;5.22;;
27383;SDS011;14851;51.166;4.760;2022-08-01T05:02:36;8.18;;;4.35;;
27383;SDS011;14851;51.166;4.760;2022-08-01T05:05:05;7.28;;;4.38;;
27383;SDS011;14851;51.166;4.760;2022-08-01T05:07:32;9.25;;;4.65;;
27383;SDS011;14851;51.166;4.760;2022-08-01T05:09:59;7.68;;;4.32;;
27383;SDS011;14851;51.166;4.760;2022-08-01T05:12:31;7.60;;;4.22;;
27383;SDS011;14851;51.166;4.760;2022-08-01T05:14:59;6.30;;;3.97;;
27383;SDS011;14851;51.166;4.760;2022-08-01T05:17:25;6.18;;;3.67;;
27383;SDS011;14851;51.166;4.760;2022-08-01T05:19:51;6.63;;;3.80;;
27383;SDS011;14851;51.166;4.760;2022-08-01T05:22:20;6.63;;;2.95;;
27383;SDS011;14851;51.166;4.760;2022-08-01T05:24:49;5.97;;;3.17;;
27383;SDS011;14851;51.166;4.760;2022-08-01T05:27:15;4.22;;;2.97;;
27383;SDS011;14851;51.166;4.760;2022-08-01T05:29:42;6.43;;;2.70;;
27383;SDS011;14851;51.166;4.760;2022-08-01T05:32:08;6.10;;;2.55;;
27383;SDS011;14851;51.166;4.760;2022-08-01T05:34:34;4.05;;;2.67;;
27383;SDS011;14851;51.166;4.760;2022-08-01T05:37:01;4.22;;;2.80;;
27383;SDS011;14851;51.166;4.760;2022-08-01T05:39:30;4.63;;;2.92;;
27383;SDS011;14851;51.166;4.760;2022-08-01T05:41:56;5.45;;;3.35;;
27383;SDS011;14851;51.166;4.760;2022-08-01T05:44:22;6.18;;;3.72;;
27383;SDS011;14851;51.166;4.760;2022-08-01T05:46:49;6.03;;;3.08;;
27383;SDS011;14851;51.166;4.760;2022-08-01T05:49:16;6.00;;;3.28;;
27383;SDS011;14851;51.166;4.760;2022-08-01T05:51:42;5.68;;;3.20;;
27383;SDS011;14851;51.166;4.760;2022-08-01T05:54:09;4.40;;;3.05;;
27383;SDS011;14851;51.166;4.760;2022-08-01T05:56:38;4.32;;;3.20;;
27383;SDS011;14851;51.166;4.760;2022-08-01T05:59:06;4.47;;;2.65;;
27383;SDS011;14851;51.166;4.760;2022-08-01T06:01:36;5.18;;;2.45;;
27383;SDS011;14851;51.166;4.760;2022-08-01T06:04:02;3.42;;;2.63;;
27383;SDS011;14851;51.166;4.760;2022-08-01T06:06:28;5.65;;;3.13;;
27383;SDS011;14851;51.166;4.760;2022-08-01T06:08:55;4.43;;;2.65;;
27383;SDS011;14851;51.166;4.760;2022-08-01T06:11:21;3.35;;;2.60;;
27383;SDS011;14851;51.166;4.760;2022-08-01T06:13:47;2.78;;;2.28;;
27383;SDS011;14851;51.166;4.760;2022-08-01T06:16:13;4.57;;;2.63;;
27383;SDS011;14851;51.166;4.760;2022-08-01T06:18:38;4.22;;;2.58;;
27383;SDS011;14851;51.166;4.760;2022-08-01T06:21:04;3.33;;;2.60;;
27383;SDS011;14851;51.166;4.760;2022-08-01T06:23:31;3.72;;;2.50;;
27383;SDS011;14851;51.166;4.760;2022-08-01T06:25:57;3.63;;;2.13;;
27383;SDS011;14851;51.166;4.760;2022-08-01T06:28:24;3.97;;;2.47;;
27383;SDS011;14851;51.166;4.760;2022-08-01T06:30:53;3.90;;;2.72;;
27383;SDS011;14851;51.166;4.760;2022-08-01T06:33:19;5.25;;;2.50;;
27383;SDS011;14851;51.166;4.760;2022-08-01T06:35:50;4.68;;;2.65;;
27383;SDS011;14851;51.166;4.760;2022-08-01T06:38:16;3.15;;;2.45;;
27383;SDS011;14851;51.166;4.760;2022-08-01T06:40:43;3.83;;;2.53;;
27383;SDS011;14851;51.166;4.760;2022-08-01T06:43:09;3.30;;;2.60;;
27383;SDS011;14851;51.166;4.760;2022-08-01T06:45:37;3.53;;;2.42;;
27383;SDS011;14851;51.166;4.760;2022-08-01T06:48:04;3.75;;;2.72;;
27383;SDS011;14851;51.166;4.760;2022-08-01T06:50:30;3.58;;;2.22;;
27383;SDS011;14851;51.166;4.760;2022-08-01T06:53:00;5.55;;;2.53;;
27383;SDS011;14851;51.166;4.760;2022-08-01T06:55:25;4.15;;;2.03;;
27383;SDS011;14851;51.166;4.760;2022-08-01T06:57:52;2.05;;;1.85;;
27383;SDS011;14851;51.166;4.760;2022-08-01T07:00:21;5.27;;;2.40;;
27383;SDS011;14851;51.166;4.760;2022-08-01T07:02:49;3.50;;;2.33;;
27383;SDS011;14851;51.166;4.760;2022-08-01T07:05:18;4.60;;;2.33;;
27383;SDS011;14851;51.166;4.760;2022-08-01T07:07:44;3.50;;;2.60;;
27383;SDS011;14851;51.166;4.760;2022-08-01T07:10:10;2.85;;;2.13;;
27383;SDS011;14851;51.166;4.760;2022-08-01T07:12:36;3.33;;;2.15;;
27383;SDS011;14851;51.166;4.760;2022-08-01T07:15:06;3.80;;;2.00;;
27383;SDS011;14851;51.166;4.760;2022-08-01T07:17:38;4.18;;;2.10;;
27383;SDS011;14851;51.166;4.760;2022-08-01T07:20:07;3.22;;;1.88;;
27383;SDS011;14851;51.166;4.760;2022-08-01T07:22:35;4.57;;;1.75;;
27383;SDS011;14851;51.166;4.760;2022-08-01T07:25:02;2.25;;;1.40;;
27383;SDS011;14851;51.166;4.760;2022-08-01T07:27:30;2.95;;;1.48;;
27383;SDS011;14851;51.166;4.760;2022-08-01T07:29:56;2.30;;;1.50;;
27383;SDS011;14851;51.166;4.760;2022-08-01T07:32:22;1.35;;;1.25;;
27383;SDS011;14851;51.166;4.760;2022-08-01T07:34:51;2.00;;;1.30;;
27383;SDS011;14851;51.166;4.760;2022-08-01T07:37:20;2.85;;;1.75;;
27383;SDS011;14851;51.166;4.760;2022-08-01T07:39:49;2.13;;;1.05;;
27383;SDS011;14851;51.166;4.760;2022-08-01T07:42:16;1.45;;;0.60;;
27383;SDS011;14851;51.166;4.760;2022-08-01T07:44:42;2.75;;;0.63;;
27383;SDS011;14851;51.166;4.760;2022-08-01T07:47:07;0.90;;;0.57;;
27383;SDS011;14851;51.166;4.760;2022-08-01T07:49:34;1.30;;;0.60;;
27383;SDS011;14851;51.166;4.760;2022-08-01T07:52:00;1.65;;;0.88;;
27383;SDS011;14851;51.166;4.760;2022-08-01T07:54:26;1.00;;;0.68;;
27383;SDS011;14851;51.166;4.760;2022-08-01T07:56:55;0.60;;;0.60;;
27383;SDS011;14851;51.166;4.760;2022-08-01T07:59:21;1.15;;;0.70;;
27383;SDS011;14851;51.166;4.760;2022-08-01T08:01:49;1.77;;;0.80;;
27383;SDS011;14851;51.166;4.760;2022-08-01T08:04:17;1.95;;;1.00;;
27383;SDS011;14851;51.166;4.760;2022-08-01T08:06:43;2.35;;;1.00;;
27383;SDS011;14851;51.166;4.760;2022-08-01T08:09:12;1.00;;;0.90;;
27383;SDS011;14851;51.166;4.760;2022-08-01T08:11:39;2.30;;;0.60;;
27383;SDS011;14851;51.166;4.760;2022-08-01T08:14:08;2.33;;;1.02;;
27383;SDS011;14851;51.166;4.760;2022-08-01T08:16:34;1.00;;;0.90;;
27383;SDS011;14851;51.166;4.760;2022-08-01T08:18:59;1.23;;;0.82;;
27383;SDS011;14851;51.166;4.760;2022-08-01T08:21:26;2.00;;;0.88;;
27383;SDS011;14851;51.166;4.760;2022-08-01T08:23:52;1.30;;;0.70;;
27383;SDS011;14851;51.166;4.760;2022-08-01T08:26:37;1.30;;;0.80;;
27383;SDS011;14851;51.166;4.760;2022-08-01T08:29:03;1.52;;;0.90;;
27383;SDS011;14851;51.166;4.760;2022-08-01T08:31:29;1.45;;;1.00;;
27383;SDS011;14851;51.166;4.760;2022-08-01T08:33:55;0.50;;;0.50;;
27383;SDS011;14851;51.166;4.760;2022-08-01T08:36:22;1.88;;;0.90;;
27383;SDS011;14851;51.166;4.760;2022-08-01T08:38:48;1.67;;;0.90;;
27383;SDS011;14851;51.166;4.760;2022-08-01T08:41:15;0.82;;;0.80;;
27383;SDS011;14851;51.166;4.760;2022-08-01T08:43:42;1.65;;;0.90;;
27383;SDS011;14851;51.166;4.760;2022-08-01T08:46:10;2.20;;;0.80;;
27383;SDS011;14851;51.166;4.760;2022-08-01T08:48:39;2.38;;;0.90;;
27383;SDS011;14851;51.166;4.760;2022-08-01T08:51:07;2.70;;;0.93;;
27383;SDS011;14851;51.166;4.760;2022-08-01T08:53:38;3.72;;;1.00;;
27383;SDS011;14851;51.166;4.760;2022-08-01T08:56:08;2.33;;;1.00;;
27383;SDS011;14851;51.166;4.760;2022-08-01T08:58:37;2.58;;;0.82;;
27383;SDS011;14851;51.166;4.760;2022-08-01T09:01:06;1.60;;;0.73;;
27383;SDS011;14851;51.166;4.760;2022-08-01T09:03:36;2.05;;;1.05;;
27383;SDS011;14851;51.166;4.760;2022-08-01T09:06:02;1.92;;;1.27;;
27383;SDS011;14851;51.166;4.760;2022-08-01T09:08:31;1.08;;;0.75;;
27383;SDS011;14851;51.166;4.760;2022-08-01T09:10:58;1.63;;;1.10;;
27383;SDS011;14851;51.166;4.760;2022-08-01T09:13:25;1.92;;;1.08;;
27383;SDS011;14851;51.166;4.760;2022-08-01T09:15:52;2.60;;;1.20;;
27383;SDS011;14851;51.166;4.760;2022-08-01T09:18:26;2.50;;;1.20;;
27383;SDS011;14851;51.166;4.760;2022-08-01T09:23:47;1.70;;;1.10;;
27383;SDS011;14851;51.166;4.760;2022-08-01T09:26:17;1.48;;;1.00;;
27383;SDS011;14851;51.166;4.760;2022-08-01T09:28:46;2.22;;;0.90;;
27383;SDS011;14851;51.166;4.760;2022-08-01T09:31:14;1.23;;;0.95;;
27383;SDS011;14851;51.166;4.760;2022-08-01T09:33:55;3.42;;;1.05;;
27383;SDS011;14851;51.166;4.760;2022-08-01T09:36:43;1.92;;;0.95;;
27383;SDS011;14851;51.166;4.760;2022-08-01T09:39:17;1.67;;;0.98;;
27383;SDS011;14851;51.166;4.760;2022-08-01T09:41:45;2.20;;;0.95;;
27383;SDS011;14851;51.166;4.760;2022-08-01T09:44:13;3.90;;;1.38;;
27383;SDS011;14851;51.166;4.760;2022-08-01T09:46:48;1.88;;;1.23;;
27383;SDS011;14851;51.166;4.760;2022-08-01T09:49:15;3.17;;;1.10;;
27383;SDS011;14851;51.166;4.760;2022-08-01T09:51:56;4.43;;;1.10;;
27383;SDS011;14851;51.166;4.760;2022-08-01T09:54:31;2.22;;;0.98;;
27383;SDS011;14851;51.166;4.760;2022-08-01T09:57:09;2.72;;;0.93;;
27383;SDS011;14851;51.166;4.760;2022-08-01T09:59:38;1.70;;;0.82;;
27383;SDS011;14851;51.166;4.760;2022-08-01T10:02:09;2.25;;;0.80;;
27383;SDS011;14851;51.166;4.760;2022-08-01T10:04:48;2.00;;;1.20;;
27383;SDS011;14851;51.166;4.760;2022-08-01T10:07:15;2.28;;;1.17;;
27383;SDS011;14851;51.166;4.760;2022-08-01T10:09:42;2.92;;;0.82;;
27383;SDS011;14851;51.166;4.760;2022-08-01T10:12:10;3.67;;;1.00;;
27383;SDS011;14851;51.166;4.760;2022-08-01T10:14:39;1.92;;;1.00;;
27383;SDS011;14851;51.166;4.760;2022-08-01T10:17:07;1.70;;;1.00;;
27383;SDS011;14851;51.166;4.760;2022-08-01T10:19:35;1.45;;;0.90;;
27383;SDS011;14851;51.166;4.760;2022-08-01T10:22:03;3.20;;;1.10;;
27383;SDS011;14851;51.166;4.760;2022-08-01T10:24:34;3.53;;;0.80;;
27383;SDS011;14851;51.166;4.760;2022-08-01T10:27:08;2.85;;;1.23;;
27383;SDS011;14851;51.166;4.760;2022-08-01T10:29:36;4.25;;;1.15;;
27383;SDS011;14851;51.166;4.760;2022-08-01T10:32:07;3.05;;;1.20;;
27383;SDS011;14851;51.166;4.760;2022-08-01T10:34:37;1.75;;;1.00;;
27383;SDS011;14851;51.166;4.760;2022-08-01T10:37:04;3.38;;;1.10;;
27383;SDS011;14851;51.166;4.760;2022-08-01T10:39:32;2.10;;;1.30;;
27383;SDS011;14851;51.166;4.760;2022-08-01T10:41:59;3.30;;;1.30;;
27383;SDS011;14851;51.166;4.760;2022-08-01T10:44:27;3.20;;;0.90;;
27383;SDS011;14851;51.166;4.760;2022-08-01T10:46:57;2.20;;;0.90;;
27383;SDS011;14851;51.166;4.760;2022-08-01T10:49:36;3.10;;;1.00;;
27383;SDS011;14851;51.166;4.760;2022-08-01T10:52:16;3.65;;;1.27;;
27383;SDS011;14851;51.166;4.760;2022-08-01T10:54:43;3.15;;;1.17;;
27383;SDS011;14851;51.166;4.760;2022-08-01T10:57:10;4.28;;;1.20;;
27383;SDS011;14851;51.166;4.760;2022-08-01T10:59:47;2.75;;;1.10;;
27383;SDS011;14851;51.166;4.760;2022-08-01T11:02:28;3.15;;;1.20;;
27383;SDS011;14851;51.166;4.760;2022-08-01T11:05:09;2.38;;;1.00;;
27383;SDS011;14851;51.166;4.760;2022-08-01T11:08:04;2.42;;;1.00;;
27383;SDS011;14851;51.166;4.760;2022-08-01T11:10:39;2.22;;;1.02;;
27383;SDS011;14851;51.166;4.760;2022-08-01T11:13:08;2.33;;;0.90;;
27383;SDS011;14851;51.166;4.760;2022-08-01T11:15:37;3.80;;;1.10;;
27383;SDS011;14851;51.166;4.760;2022-08-01T11:21:15;4.35;;;1.30;;
27383;SDS011;14851;51.166;4.760;2022-08-01T11:23:49;3.00;;;1.42;;
27383;SDS011;14851;51.166;4.760;2022-08-01T11:26:20;2.88;;;1.23;;
27383;SDS011;14851;51.166;4.760;2022-08-01T11:29:10;2.85;;;1.50;;
27383;SDS011;14851;51.166;4.760;2022-08-01T11:31:37;3.60;;;1.25;;
27383;SDS011;14851;51.166;4.760;2022-08-01T11:34:03;3.13;;;1.40;;
27383;SDS011;14851;51.166;4.760;2022-08-01T11:36:29;3.20;;;1.38;;
27383;SDS011;14851;51.166;4.760;2022-08-01T11:41:26;2.10;;;1.13;;
27383;SDS011;14851;51.166;4.760;2022-08-01T11:44:01;3.78;;;1.40;;
27383;SDS011;14851;51.166;4.760;2022-08-01T11:46:44;3.22;;;1.42;;
27383;SDS011;14851;51.166;4.760;2022-08-01T11:52:15;1.90;;;1.10;;
27383;SDS011;14851;51.166;4.760;2022-08-01T11:54:46;3.65;;;1.30;;
27383;SDS011;14851;51.166;4.760;2022-08-01T11:57:14;3.03;;;1.45;;
27383;SDS011;14851;51.166;4.760;2022-08-01T11:59:42;2.40;;;1.00;;
27383;SDS011;14851;51.166;4.760;2022-08-01T12:02:18;4.43;;;1.27;;
27383;SDS011;14851;51.166;4.760;2022-08-01T12:04:52;2.88;;;1.15;;
27383;SDS011;14851;51.166;4.760;2022-08-01T12:07:29;2.00;;;1.10;;
27383;SDS011;14851;51.166;4.760;2022-08-01T12:12:45;3.88;;;1.30;;
27383;SDS011;14851;51.166;4.760;2022-08-01T12:15:13;3.42;;;1.35;;
27383;SDS011;14851;51.166;4.760;2022-08-01T12:17:44;3.45;;;1.38;;
27383;SDS011;14851;51.166;4.760;2022-08-01T12:20:13;4.57;;;1.70;;
27383;SDS011;14851;51.166;4.760;2022-08-01T12:22:44;4.28;;;1.20;;
27383;SDS011;14851;51.166;4.760;2022-08-01T12:25:15;4.20;;;1.92;;
27383;SDS011;14851;51.166;4.760;2022-08-01T12:27:44;2.50;;;1.15;;
27383;SDS011;14851;51.166;4.760;2022-08-01T12:30:13;3.92;;;1.30;;
27383;SDS011;14851;51.166;4.760;2022-08-01T12:32:46;3.40;;;1.13;;
27383;SDS011;14851;51.166;4.760;2022-08-01T12:35:15;3.20;;;1.08;;
27383;SDS011;14851;51.166;4.760;2022-08-01T12:37:51;3.33;;;1.20;;
27383;SDS011;14851;51.166;4.760;2022-08-01T12:40:30;5.30;;;1.40;;
27383;SDS011;14851;51.166;4.760;2022-08-01T12:42:59;2.47;;;1.27;;
27383;SDS011;14851;51.166;4.760;2022-08-01T12:45:30;3.03;;;0.95;;
27383;SDS011;14851;51.166;4.760;2022-08-01T12:48:08;1.80;;;0.95;;
27383;SDS011;14851;51.166;4.760;2022-08-01T12:50:36;3.40;;;1.00;;
27383;SDS011;14851;51.166;4.760;2022-08-01T12:53:09;2.28;;;1.10;;
27383;SDS011;14851;51.166;4.760;2022-08-01T12:58:17;2.70;;;1.27;;
27383;SDS011;14851;51.166;4.760;2022-08-01T13:00:47;4.60;;;1.40;;
27383;SDS011;14851;51.166;4.760;2022-08-01T13:03:19;2.55;;;1.02;;
27383;SDS011;14851;51.166;4.760;2022-08-01T13:13:37;2.90;;;1.10;;
27383;SDS011;14851;51.166;4.760;2022-08-01T13:16:14;4.93;;;1.10;;
27383;SDS011;14851;51.166;4.760;2022-08-01T13:18:41;3.70;;;1.10;;
27383;SDS011;14851;51.166;4.760;2022-08-01T13:21:16;3.13;;;1.10;;
27383;SDS011;14851;51.166;4.760;2022-08-01T13:24:05;2.75;;;1.13;;
27383;SDS011;14851;51.166;4.760;2022-08-01T13:29:13;4.00;;;1.48;;
27383;SDS011;14851;51.166;4.760;2022-08-01T13:31:43;2.75;;;1.40;;
27383;SDS011;14851;51.166;4.760;2022-08-01T13:34:09;3.83;;;1.17;;
27383;SDS011;14851;51.166;4.760;2022-08-01T13:36:36;4.10;;;1.75;;
27383;SDS011;14851;51.166;4.760;2022-08-01T13:39:06;5.13;;;1.60;;
27383;SDS011;14851;51.166;4.760;2022-08-01T13:41:51;4.80;;;1.60;;
27383;SDS011;14851;51.166;4.760;2022-08-01T13:44:17;3.05;;;1.65;;
27383;SDS011;14851;51.166;4.760;2022-08-01T13:46:43;3.67;;;1.42;;
27383;SDS011;14851;51.166;4.760;2022-08-01T13:49:10;3.10;;;1.65;;
27383;SDS011;14851;51.166;4.760;2022-08-01T13:51:37;3.70;;;1.42;;
27383;SDS011;14851;51.166;4.760;2022-08-01T13:54:04;3.38;;;1.42;;
27383;SDS011;14851;51.166;4.760;2022-08-01T13:56:31;3.33;;;1.40;;
27383;SDS011;14851;51.166;4.760;2022-08-01T13:59:02;3.35;;;1.40;;
27383;SDS011;14851;51.166;4.760;2022-08-01T14:01:29;3.33;;;1.48;;
27383;SDS011;14851;51.166;4.760;2022-08-01T14:03:56;3.33;;;1.20;;
27383;SDS011;14851;51.166;4.760;2022-08-01T14:06:24;2.38;;;0.98;;
27383;SDS011;14851;51.166;4.760;2022-08-01T14:08:50;3.10;;;1.30;;
27383;SDS011;14851;51.166;4.760;2022-08-01T14:11:18;2.85;;;1.65;;
27383;SDS011;14851;51.166;4.760;2022-08-01T14:13:45;5.20;;;1.75;;
27383;SDS011;14851;51.166;4.760;2022-08-01T14:16:11;3.33;;;1.50;;
27383;SDS011;14851;51.166;4.760;2022-08-01T14:18:37;2.67;;;1.63;;
27383;SDS011;14851;51.166;4.760;2022-08-01T14:21:03;3.38;;;1.58;;
27383;SDS011;14851;51.166;4.760;2022-08-01T14:23:29;3.38;;;1.77;;
27383;SDS011;14851;51.166;4.760;2022-08-01T14:25:55;1.77;;;1.10;;
27383;SDS011;14851;51.166;4.760;2022-08-01T14:28:21;3.78;;;1.65;;
27383;SDS011;14851;51.166;4.760;2022-08-01T14:30:49;2.70;;;1.65;;
27383;SDS011;14851;51.166;4.760;2022-08-01T14:33:15;3.50;;;1.70;;
27383;SDS011;14851;51.166;4.760;2022-08-01T14:35:44;5.07;;;1.92;;
27383;SDS011;14851;51.166;4.760;2022-08-01T14:38:10;4.40;;;2.03;;
27383;SDS011;14851;51.166;4.760;2022-08-01T14:40:35;4.88;;;1.95;;
27383;SDS011;14851;51.166;4.760;2022-08-01T14:43:02;4.65;;;1.23;;
27383;SDS011;14851;51.166;4.760;2022-08-01T14:45:30;5.93;;;1.70;;
27383;SDS011;14851;51.166;4.760;2022-08-01T14:47:56;5.43;;;1.92;;
27383;SDS011;14851;51.166;4.760;2022-08-01T14:50:24;6.75;;;1.38;;
27383;SDS011;14851;51.166;4.760;2022-08-01T14:52:55;3.90;;;1.90;;
27383;SDS011;14851;51.166;4.760;2022-08-01T14:55:22;4.43;;;1.55;;
27383;SDS011;14851;51.166;4.760;2022-08-01T14:57:50;4.70;;;1.60;;
27383;SDS011;14851;51.166;4.760;2022-08-01T15:00:19;4.47;;;1.60;;
27383;SDS011;14851;51.166;4.760;2022-08-01T15:02:45;3.03;;;1.30;;
27383;SDS011;14851;51.166;4.760;2022-08-01T15:05:11;3.90;;;1.70;;
27383;SDS011;14851;51.166;4.760;2022-08-01T15:07:38;4.97;;;2.42;;
27383;SDS011;14851;51.166;4.760;2022-08-01T15:10:04;5.15;;;1.60;;
27383;SDS011;14851;51.166;4.760;2022-08-01T15:12:31;4.13;;;1.48;;
27383;SDS011;14851;51.166;4.760;2022-08-01T15:14:58;3.75;;;1.42;;
27383;SDS011;14851;51.166;4.760;2022-08-01T15:17:25;5.85;;;1.50;;
27383;SDS011;14851;51.166;4.760;2022-08-01T15:19:56;2.38;;;1.20;;
27383;SDS011;14851;51.166;4.760;2022-08-01T15:22:24;4.97;;;2.03;;
27383;SDS011;14851;51.166;4.760;2022-08-01T15:24:52;3.45;;;1.70;;
27383;SDS011;14851;51.166;4.760;2022-08-01T15:27:22;3.13;;;1.35;;
27383;SDS011;14851;51.166;4.760;2022-08-01T15:29:48;4.75;;;1.48;;
27383;SDS011;14851;51.166;4.760;2022-08-01T15:32:17;4.35;;;1.30;;
27383;SDS011;14851;51.166;4.760;2022-08-01T15:34:43;5.97;;;1.70;;
27383;SDS011;14851;51.166;4.760;2022-08-01T15:37:09;3.47;;;1.70;;
27383;SDS011;14851;51.166;4.760;2022-08-01T15:39:37;3.58;;;1.20;;
27383;SDS011;14851;51.166;4.760;2022-08-01T15:42:05;7.07;;;1.77;;